Time;durP1;ratioP1;P1;durP2;ratioP2;P2;SDS_P1;SDS_P2;PMS_P1;PMS_P2;Temp;Humidity;BMP_temperature;BMP_pressure;BME280_temperature;BME280_humidity;BME280_pressure;Samples;Min_cycle;Max_cycle;Signal;HPM_P1;HPM_P2
2023/07/08 00:00:23;;;;;;;0.45;0.45;;;18.30;1.00;;;;;;4953418;28;20047;-85
2023/07/08 00:02:50;;;;;;;1.13;0.68;;;18.30;1.00;;;;;;4945149;28;20122;-87
2023/07/08 00:05:17;;;;;;;;;;;18.20;1.00;;;;;;4949628;28;20066;-87
2023/07/08 00:07:43;;;;;;;0.40;0.40;;;18.10;99.90;;;;;;4939324;28;20020;-87
2023/07/08 00:10:13;;;;;;;0.25;0.25;;;18.10;46.00;;;;;;4927743;28;20121;-87
2023/07/08 00:12:39;;;;;;;0.73;0.73;;;18.10;99.90;;;;;;4965648;28;20509;-86
2023/07/08 00:15:05;;;;;;;0.60;0.38;;;18.00;18.40;;;;;;4937598;28;20093;-86
2023/07/08 00:17:31;;;;;;;0.20;0.20;;;18.00;99.90;;;;;;4953563;28;20114;-87
2023/07/08 00:19:57;;;;;;;0.30;0.30;;;17.90;99.90;;;;;;4938303;28;20046;-86
2023/07/08 00:22:24;;;;;;;1.13;0.73;;;17.90;99.90;;;;;;4943822;28;20817;-87
2023/07/08 00:24:50;;;;;;;0.50;0.50;;;17.90;99.90;;;;;;4970272;28;20059;-87
2023/07/08 00:27:16;;;;;;;0.38;0.38;;;17.90;99.90;;;;;;4966828;28;20074;-86
2023/07/08 00:29:42;;;;;;;0.22;0.22;;;17.90;99.90;;;;;;4953265;28;20142;-87
2023/07/08 00:32:14;;;;;;;0.50;0.50;;;17.80;99.90;;;;;;4955454;28;20073;-87
2023/07/08 00:34:41;;;;;;;0.63;0.63;;;17.80;99.90;;;;;;4955383;28;20047;-88
2023/07/08 00:37:13;;;;;;;;;;;17.80;99.90;;;;;;4957267;28;20039;-87
2023/07/08 00:39:39;;;;;;;0.25;0.25;;;17.80;99.90;;;;;;4960258;28;19922;-88
2023/07/08 00:42:25;;;;;;;0.57;0.35;;;17.80;99.90;;;;;;4973281;28;20069;-88
2023/07/08 00:44:51;;;;;;;0.60;0.57;;;17.80;99.90;;;;;;4958749;28;20070;-87
2023/07/08 00:47:18;;;;;;;0.28;0.28;;;17.70;1.00;;;;;;4955017;28;20180;-86
2023/07/08 00:49:56;;;;;;;0.30;0.30;;;17.70;1.00;;;;;;4967488;28;20038;-88
2023/07/08 00:52:25;;;;;;;0.47;0.47;;;17.70;99.90;;;;;;4994068;28;20058;-88
2023/07/08 00:54:59;;;;;;;0.73;0.50;;;17.70;1.00;;;;;;4958952;28;20109;-88
2023/07/08 00:57:29;;;;;;;1.05;0.70;;;17.60;65.00;;;;;;4976992;28;20532;-87
2023/07/08 01:00:06;;;;;;;0.20;0.20;;;17.60;14.90;;;;;;4975455;28;20050;-88
2023/07/08 01:02:35;;;;;;;0.47;0.47;;;17.60;99.90;;;;;;4945684;28;20050;-85
2023/07/08 01:05:12;;;;;;;0.47;0.35;;;17.50;99.90;;;;;;4990205;28;20049;-88
2023/07/08 01:07:40;;;;;;;;;;;17.50;99.90;;;;;;4985833;28;20042;-87
2023/07/08 01:10:13;;;;;;;0.40;0.40;;;17.50;99.90;;;;;;4981184;28;19969;-87
2023/07/08 01:12:50;;;;;;;0.50;0.45;;;17.40;99.90;;;;;;4975782;28;20133;-87
2023/07/08 01:15:16;;;;;;;0.40;0.40;;;17.40;61.40;;;;;;4970033;28;20069;-88
2023/07/08 01:17:44;;;;;;;0.65;0.55;;;17.40;1.00;;;;;;4947487;28;20133;-86
2023/07/08 01:20:14;;;;;;;0.68;0.47;;;17.40;99.90;;;;;;4960645;28;20056;-87
2023/07/08 01:22:41;;;;;;;0.52;0.52;;;17.40;28.20;;;;;;4962452;28;20565;-87
2023/07/08 01:25:08;;;;;;;0.45;0.43;;;17.40;95.00;;;;;;4954000;28;20046;-88
2023/07/08 01:27:39;;;;;;;0.52;0.40;;;17.30;1.00;;;;;;4963080;28;20062;-85
2023/07/08 01:30:06;;;;;;;0.63;0.45;;;17.30;1.00;;;;;;4944756;28;20051;-87
2023/07/08 01:32:35;;;;;;;0.30;0.30;;;17.30;93.00;;;;;;4961929;28;20072;-87
2023/07/08 01:35:03;;;;;;;0.40;0.40;;;17.30;1.00;;;;;;4977853;28;20093;-86
2023/07/08 01:37:36;;;;;;;0.40;0.40;;;17.30;99.90;;;;;;4958568;28;20101;-88
2023/07/08 01:40:29;;;;;;;0.20;0.20;;;17.20;1.00;;;;;;4958451;28;20495;-86
2023/07/08 01:42:55;;;;;;;0.40;0.38;;;17.20;1.00;;;;;;4973457;28;20073;-87
2023/07/08 01:45:23;;;;;;;0.30;0.30;;;17.20;99.90;;;;;;4974924;28;20042;-87
2023/07/08 01:48:03;;;;;;;0.68;0.68;;;17.20;28.60;;;;;;4975060;28;20074;-86
2023/07/08 01:50:32;;;;;;;0.45;0.38;;;17.10;99.90;;;;;;4963060;28;20054;-86
2023/07/08 01:53:00;;;;;;;0.70;0.50;;;17.10;99.90;;;;;;4984376;28;20043;-87
2023/07/08 01:55:30;;;;;;;1.23;0.82;;;17.00;1.00;;;;;;4958590;28;20129;-88
2023/07/08 01:57:55;;;;;;;0.70;0.47;;;17.10;26.30;;;;;;4960932;28;21614;-86
2023/07/08 02:00:22;;;;;;;0.30;0.30;;;17.10;23.10;;;;;;4975103;28;20043;-87
2023/07/08 02:02:49;;;;;;;0.63;0.63;;;17.10;99.90;;;;;;4971821;28;20126;-86
2023/07/08 02:05:15;;;;;;;0.77;0.50;;;17.10;99.90;;;;;;4980995;28;20051;-87
2023/07/08 02:07:41;;;;;;;1.80;0.50;;;17.00;39.00;;;;;;4961896;28;20050;-84
2023/07/08 02:10:07;;;;;;;0.90;0.70;;;17.00;99.90;;;;;;4974737;28;20053;-86
2023/07/08 02:12:33;;;;;;;0.40;0.40;;;17.00;99.90;;;;;;4973882;28;20054;-85
2023/07/08 02:15:02;;;;;;;0.90;0.90;;;17.00;1.00;;;;;;4988554;28;20085;-86
2023/07/08 02:17:31;;;;;;;0.35;0.35;;;17.00;1.00;;;;;;4963500;28;20051;-87
2023/07/08 02:19:57;;;;;;;0.73;0.40;;;17.00;99.90;;;;;;4985373;28;20051;-87
2023/07/08 02:22:23;;;;;;;1.55;0.40;;;16.90;99.90;;;;;;4983655;28;20049;-87
2023/07/08 02:24:49;;;;;;;0.40;0.40;;;16.90;99.90;;;;;;4967289;28;20049;-87
2023/07/08 02:27:15;;;;;;;1.52;0.50;;;16.90;1.00;;;;;;4985916;28;20122;-87
2023/07/08 02:29:41;;;;;;;0.32;0.32;;;16.80;99.10;;;;;;4968320;28;20530;-87
2023/07/08 02:32:09;;;;;;;0.50;0.50;;;16.80;99.90;;;;;;4982084;28;20104;-86
2023/07/08 02:34:38;;;;;;;0.57;0.30;;;16.80;99.90;;;;;;4965196;28;20058;-86
2023/07/08 02:37:04;;;;;;;0.60;0.60;;;16.80;99.90;;;;;;4963070;28;20043;-86
2023/07/08 02:39:30;;;;;;;0.43;0.38;;;16.70;1.00;;;;;;4966982;28;20046;-87
2023/07/08 02:41:56;;;;;;;0.50;0.50;;;16.70;1.00;;;;;;4964087;28;20439;-86
2023/07/08 02:44:22;;;;;;;0.73;0.55;;;16.70;1.00;;;;;;4968201;28;20042;-86
2023/07/08 02:46:48;;;;;;;0.47;0.47;;;16.60;1.00;;;;;;4984218;28;20069;-86
2023/07/08 02:49:13;;;;;;;0.50;0.50;;;16.60;56.00;;;;;;4982956;28;20050;-87
2023/07/08 02:51:39;;;;;;;0.63;0.50;;;16.50;99.90;;;;;;4982644;28;20054;-87
2023/07/08 02:54:05;;;;;;;0.65;0.65;;;16.40;99.90;;;;;;4979739;28;20310;-86
2023/07/08 02:56:30;;;;;;;0.73;0.67;;;16.40;99.90;;;;;;4955613;28;20078;-86
2023/07/08 02:58:56;;;;;;;0.80;0.80;;;16.40;99.90;;;;;;4964536;28;20294;-86
2023/07/08 03:01:23;;;;;;;0.50;0.50;;;16.40;1.00;;;;;;4981762;28;20053;-87
2023/07/08 03:03:49;;;;;;;0.43;0.43;;;16.40;1.00;;;;;;4983985;28;20356;-84
2023/07/08 03:06:15;;;;;;;0.70;0.70;;;16.30;1.00;;;;;;4964395;28;20050;-86
2023/07/08 03:08:41;;;;;;;0.45;0.45;;;16.30;1.00;;;;;;4966015;28;20047;-86
2023/07/08 03:11:08;;;;;;;0.63;0.63;;;16.20;1.00;;;;;;4969871;28;20225;-86
2023/07/08 03:13:34;;;;;;;1.38;0.80;;;16.20;37.20;;;;;;4964879;28;20045;-87
2023/07/08 03:16:01;;;;;;;1.02;0.85;;;16.20;66.20;;;;;;4964786;28;20122;-87
2023/07/08 03:18:29;;;;;;;0.60;0.60;;;16.20;99.90;;;;;;4982821;28;20522;-86
2023/07/08 03:20:56;;;;;;;0.63;0.63;;;16.20;92.50;;;;;;4980890;28;20051;-87
2023/07/08 03:23:25;;;;;;;0.47;0.47;;;16.20;99.90;;;;;;4964576;28;20454;-87
2023/07/08 03:25:52;;;;;;;0.63;0.63;;;16.20;99.90;;;;;;4963067;28;20058;-84
2023/07/08 03:28:18;;;;;;;0.35;0.35;;;16.10;99.90;;;;;;4961691;28;20045;-86
2023/07/08 03:30:45;;;;;;;0.93;0.60;;;15.60;99.90;;;;;;4965138;28;20034;-87
2023/07/08 03:33:11;;;;;;;0.60;0.60;;;16.10;99.90;;;;;;4964568;28;20046;-87
2023/07/08 03:35:40;;;;;;;0.40;0.40;;;16.10;99.90;;;;;;4951683;28;20042;-87
2023/07/08 03:38:06;;;;;;;0.50;0.40;;;16.10;99.90;;;;;;4965113;28;20125;-86
2023/07/08 03:40:32;;;;;;;0.60;0.50;;;16.10;99.90;;;;;;4965216;28;20133;-87
2023/07/08 03:42:58;;;;;;;0.82;0.82;;;16.00;99.90;;;;;;4966402;28;20058;-86
2023/07/08 03:45:25;;;;;;;0.80;0.47;;;16.00;99.90;;;;;;4949733;28;20474;-87
2023/07/08 03:47:51;;;;;;;1.02;0.63;;;16.00;99.90;;;;;;4983076;28;20042;-86
2023/07/08 03:50:23;;;;;;;1.43;1.30;;;16.00;99.90;;;;;;4961115;28;20042;-86
2023/07/08 03:52:51;;;;;;;0.50;0.50;;;16.00;99.90;;;;;;4968639;28;20050;-87
2023/07/08 03:55:17;;;;;;;0.75;0.75;;;15.90;99.90;;;;;;4963081;28;20134;-87
2023/07/08 03:57:43;;;;;;;0.40;0.40;;;15.90;99.90;;;;;;4967421;28;20104;-86
2023/07/08 04:00:11;;;;;;;0.55;0.55;;;15.90;99.90;;;;;;4948192;28;20129;-87
2023/07/08 04:02:38;;;;;;;0.77;0.77;;;15.90;99.90;;;;;;4981356;28;20558;-86
2023/07/08 04:05:04;;;;;;;;;;;15.90;99.90;;;;;;4968531;28;20410;-85
2023/07/08 04:07:30;;;;;;;3.00;0.85;;;16.00;1.00;;;;;;4994931;28;19922;-87
2023/07/08 04:09:55;;;;;;;0.53;0.53;;;15.90;99.90;;;;;;4948334;28;20050;-85
2023/07/08 04:12:21;;;;;;;0.50;0.50;;;15.90;99.90;;;;;;4964573;28;20039;-87
2023/07/08 04:14:47;;;;;;;0.83;0.83;;;15.90;99.90;;;;;;4966802;28;20793;-87
2023/07/08 04:17:13;;;;;;;2.10;1.60;;;15.90;99.90;;;;;;4983752;28;20043;-87
2023/07/08 04:19:39;;;;;;;;;;;15.90;99.90;;;;;;4987268;28;20042;-86
2023/07/08 04:22:06;;;;;;;0.40;0.40;;;15.90;1.00;;;;;;4935375;28;19928;-86
2023/07/08 04:24:32;;;;;;;0.60;0.60;;;16.00;1.00;;;;;;4968720;28;20050;-86
2023/07/08 04:26:58;;;;;;;0.57;0.57;;;16.00;99.90;;;;;;4985379;28;20050;-85
2023/07/08 04:29:25;;;;;;;1.95;0.88;;;16.10;99.90;;;;;;4967136;28;20050;-87
2023/07/08 04:31:50;;;;;;;0.63;0.63;;;16.10;99.90;;;;;;5001177;28;20070;-86
2023/07/08 04:34:16;;;;;;;0.40;0.40;;;16.10;99.90;;;;;;4966912;28;20136;-87
2023/07/08 04:36:43;;;;;;;0.52;0.52;;;16.20;99.90;;;;;;4969641;28;20053;-87
2023/07/08 04:39:10;;;;;;;0.88;0.80;;;16.20;99.90;;;;;;4970186;28;20054;-87
2023/07/08 04:41:40;;;;;;;0.70;0.70;;;16.20;99.90;;;;;;4970624;28;20062;-86
2023/07/08 04:44:10;;;;;;;0.40;0.40;;;16.20;99.90;;;;;;4967240;28;20116;-87
2023/07/08 04:46:53;;;;;;;0.30;0.30;;;16.30;1.00;;;;;;4969556;28;20402;-87
2023/07/08 04:49:20;;;;;;;0.82;0.80;;;16.40;1.00;;;;;;4952067;28;20049;-87
2023/07/08 04:51:46;;;;;;;0.43;0.43;;;16.40;99.90;;;;;;4951395;28;20057;-87
2023/07/08 04:54:12;;;;;;;1.63;1.00;;;16.50;99.90;;;;;;4982537;28;20050;-87
2023/07/08 04:56:43;;;;;;;0.47;0.47;;;16.60;99.90;;;;;;4983183;28;20214;-87
2023/07/08 04:59:14;;;;;;;1.00;0.55;;;16.60;99.90;;;;;;4986256;28;20049;-87
2023/07/08 05:01:41;;;;;;;0.40;0.30;;;16.80;99.90;;;;;;4967798;28;20121;-87
2023/07/08 05:04:07;;;;;;;0.40;0.40;;;16.80;99.90;;;;;;4966753;28;20495;-87
2023/07/08 05:06:33;;;;;;;;;;;16.90;99.90;;;;;;4963410;28;20051;-87
2023/07/08 05:08:59;;;;;;;0.80;0.73;;;17.10;1.00;;;;;;4969324;28;19988;-87
2023/07/08 05:11:26;;;;;;;0.40;0.40;;;17.20;99.90;;;;;;4984950;28;20158;-86
2023/07/08 05:13:51;;;;;;;1.25;0.73;;;17.30;99.90;;;;;;4968232;28;20046;-87
2023/07/08 05:16:17;;;;;;;0.75;0.75;;;17.40;99.90;;;;;;4969928;28;20435;-87
2023/07/08 05:18:44;;;;;;;0.70;0.70;;;17.60;99.90;;;;;;4966389;28;20484;-87
2023/07/08 05:21:11;;;;;;;1.00;0.70;;;17.80;99.90;;;;;;4981922;28;20082;-85
2023/07/08 05:23:37;;;;;;;0.93;0.85;;;18.00;99.90;;;;;;4968091;28;20057;-86
2023/07/08 05:26:04;;;;;;;0.47;0.47;;;18.10;99.90;;;;;;4965736;28;20034;-87
2023/07/08 05:28:30;;;;;;;0.68;0.68;;;18.30;99.90;;;;;;4964744;28;20055;-87
2023/07/08 05:30:56;;;;;;;0.55;0.50;;;18.50;1.00;;;;;;4968136;28;20062;-87
2023/07/08 05:33:27;;;;;;;0.73;0.73;;;18.70;99.90;;;;;;4984654;28;20494;-86
2023/07/08 05:35:53;;;;;;;0.55;0.52;;;18.90;1.00;;;;;;4984416;28;20507;-86
2023/07/08 05:38:18;;;;;;;0.73;0.73;;;19.10;99.90;;;;;;4967588;28;20140;-87
2023/07/08 05:40:54;;;;;;;0.20;0.20;;;19.10;99.90;;;;;;4949965;28;20430;-87
2023/07/08 05:43:20;;;;;;;0.82;0.73;;;19.20;82.00;;;;;;4967308;28;20410;-87
2023/07/08 05:45:46;;;;;;;1.30;1.00;;;19.30;99.90;;;;;;4967657;28;20050;-87
2023/07/08 05:48:12;;;;;;;0.60;0.60;;;19.50;99.90;;;;;;4968676;28;20042;-87
2023/07/08 05:50:38;;;;;;;1.00;0.52;;;19.60;99.90;;;;;;4985303;28;20429;-86
2023/07/08 05:53:04;;;;;;;0.50;0.50;;;19.80;48.40;;;;;;4979121;28;20073;-87
2023/07/08 05:55:34;;;;;;;0.50;0.50;;;19.80;99.90;;;;;;4968361;28;20207;-87
2023/07/08 05:58:00;;;;;;;0.80;0.80;;;19.90;97.00;;;;;;4981066;28;20069;-88
2023/07/08 06:00:25;;;;;;;0.55;0.55;;;20.00;99.90;;;;;;4964642;28;20062;-85
2023/07/08 06:02:51;;;;;;;0.32;0.32;;;20.10;99.90;;;;;;4980722;28;20038;-86
2023/07/08 06:05:17;;;;;;;0.73;0.73;;;20.20;1.00;;;;;;4966947;28;20495;-87
2023/07/08 06:07:42;;;;;;;0.57;0.57;;;20.30;5.20;;;;;;4967481;28;20113;-87
2023/07/08 06:10:08;;;;;;;0.30;0.30;;;20.30;99.90;;;;;;4981469;28;20046;-87
2023/07/08 06:12:34;;;;;;;0.77;0.60;;;20.10;99.90;;;;;;4964386;28;20112;-88
2023/07/08 06:15:00;;;;;;;0.60;0.60;;;20.40;65.10;;;;;;4965596;28;20043;-87
2023/07/08 06:17:26;;;;;;;0.73;0.73;;;20.50;1.00;;;;;;4965865;28;20390;-87
2023/07/08 06:19:52;;;;;;;0.60;0.60;;;20.50;99.90;;;;;;4981238;28;20050;-88
2023/07/08 06:22:18;;;;;;;0.60;0.60;;;20.60;99.90;;;;;;4966584;28;20099;-85
2023/07/08 06:24:43;;;;;;;0.65;0.65;;;20.70;99.90;;;;;;4968276;28;20038;-84
2023/07/08 06:27:09;;;;;;;0.70;0.70;;;20.80;93.40;;;;;;4964751;28;20751;-86
2023/07/08 06:29:35;;;;;;;0.95;0.95;;;20.90;14.60;;;;;;4990644;28;20045;-86
2023/07/08 06:32:02;;;;;;;0.38;0.38;;;21.10;25.90;;;;;;4975338;28;20053;-86
2023/07/08 06:34:27;;;;;;;0.85;0.85;;;21.20;1.00;;;;;;4974824;28;20112;-88
2023/07/08 06:36:53;;;;;;;0.75;0.55;;;21.20;99.90;;;;;;4975249;28;20054;-88
2023/07/08 06:39:19;;;;;;;0.57;0.50;;;21.20;99.90;;;;;;4991484;28;20073;-86
2023/07/08 06:41:45;;;;;;;0.40;0.40;;;21.20;99.90;;;;;;4975002;28;20042;-88
2023/07/08 06:44:11;;;;;;;1.20;0.65;;;21.40;99.90;;;;;;4989338;28;20042;-87
2023/07/08 06:46:37;;;;;;;;;;;21.50;99.90;;;;;;4991067;28;20042;-88
2023/07/08 06:49:03;;;;;;;0.40;0.40;;;21.60;1.00;;;;;;4988560;28;20014;-88
2023/07/08 06:51:28;;;;;;;;;;;21.80;99.90;;;;;;4963073;28;20062;-89
2023/07/08 06:53:54;;;;;;;0.35;0.35;;;21.90;99.90;;;;;;4964414;28;19922;-84
2023/07/08 06:56:20;;;;;;;0.40;0.40;;;22.00;1.00;;;;;;4966909;28;20039;-87
2023/07/08 06:58:46;;;;;;;2.05;0.95;;;22.10;1.00;;;;;;4935213;28;20125;-84
2023/07/08 07:01:12;;;;;;;0.60;0.60;;;22.10;99.90;;;;;;4966758;28;20466;-85
2023/07/08 07:03:39;;;;;;;0.50;0.50;;;22.20;99.90;;;;;;4956453;28;20043;-85
2023/07/08 07:06:04;;;;;;;0.50;0.50;;;22.30;99.90;;;;;;4974760;28;20050;-84
2023/07/08 07:08:30;;;;;;;0.45;0.45;;;22.50;99.90;;;;;;4940587;28;20532;-83
2023/07/08 07:10:56;;;;;;;0.40;0.40;;;22.60;99.90;;;;;;4976701;28;20050;-87
2023/07/08 07:13:21;;;;;;;0.73;0.63;;;22.60;99.90;;;;;;4987250;28;20039;-86
2023/07/08 07:15:50;;;;;;;0.30;0.30;;;22.70;99.90;;;;;;4955575;28;20046;-86
2023/07/08 07:18:16;;;;;;;1.33;0.60;;;22.70;99.90;;;;;;4965291;28;20518;-91
2023/07/08 07:20:53;;;;;;;0.60;0.60;;;22.60;99.90;;;;;;4978811;28;20042;-87
2023/07/08 07:23:19;;;;;;;0.80;0.45;;;22.70;99.90;;;;;;4966350;28;20078;-86
2023/07/08 07:25:47;;;;;;;0.63;0.60;;;22.80;99.90;;;;;;4963593;28;20128;-87
2023/07/08 07:28:14;;;;;;;0.85;0.50;;;23.00;99.90;;;;;;4964230;28;20045;-86
2023/07/08 07:30:39;;;;;;;0.30;0.30;;;23.20;99.90;;;;;;4979417;28;20074;-86
2023/07/08 07:33:05;;;;;;;0.63;0.63;;;23.30;99.90;;;;;;4979790;28;20034;-86
2023/07/08 07:35:31;;;;;;;0.60;0.60;;;23.30;99.90;;;;;;4965121;28;20046;-87
2023/07/08 07:37:57;;;;;;;0.65;0.65;;;23.20;96.40;;;;;;4960487;28;20051;-87
2023/07/08 07:40:23;;;;;;;0.55;0.40;;;23.20;99.90;;;;;;4960954;28;20062;-87
2023/07/08 07:42:48;;;;;;;0.75;0.75;;;23.40;99.90;;;;;;4983117;28;20042;-85
2023/07/08 07:45:15;;;;;;;0.47;0.40;;;23.40;99.90;;;;;;4969084;28;20137;-84
2023/07/08 07:47:41;;;;;;;1.27;1.17;;;23.60;99.90;;;;;;4984319;28;20054;-86
2023/07/08 07:50:09;;;;;;;0.47;0.47;;;23.70;99.90;;;;;;4978871;28;20101;-86
2023/07/08 07:52:35;;;;;;;0.60;0.60;;;23.70;41.80;;;;;;4949970;28;20047;-87
2023/07/08 07:55:03;;;;;;;0.32;0.32;;;23.70;9.70;;;;;;4968462;28;20101;-86
2023/07/08 07:57:29;;;;;;;0.43;0.43;;;23.70;1.00;;;;;;4972638;28;20057;-85
2023/07/08 07:59:54;;;;;;;0.65;0.52;;;23.80;1.00;;;;;;4950109;28;20050;-86
2023/07/08 08:02:20;;;;;;;0.88;0.88;;;23.90;1.00;;;;;;4928257;28;20117;-85
2023/07/08 08:04:46;;;;;;;0.98;0.68;;;24.00;1.00;;;;;;4983090;28;20043;-86
2023/07/08 08:07:12;;;;;;;0.60;0.60;;;24.00;1.00;;;;;;4968185;28;20050;-86
2023/07/08 08:09:37;;;;;;;;;;;24.00;1.00;;;;;;4958776;28;20050;-86
2023/07/08 08:12:04;;;;;;;0.65;0.60;;;24.00;1.00;;;;;;4970535;28;19968;-84
2023/07/08 08:14:30;;;;;;;0.98;0.98;;;24.00;1.00;;;;;;4974931;28;20042;-85
2023/07/08 08:16:56;;;;;;;0.30;0.30;;;24.00;1.00;;;;;;4985030;28;20055;-85
2023/07/08 08:19:22;;;;;;;1.55;0.93;;;24.00;1.00;;;;;;4973133;28;20058;-87
2023/07/08 08:21:48;;;;;;;;;;;24.00;1.00;;;;;;4973323;28;20046;-87
2023/07/08 08:24:14;;;;;;;0.52;0.52;;;24.00;99.90;;;;;;4974093;28;19929;-87
2023/07/08 08:26:40;;;;;;;0.50;0.50;;;24.10;1.00;;;;;;4963455;28;20392;-87
2023/07/08 08:29:05;;;;;;;;;;;24.30;1.00;;;;;;4984206;28;20058;-88
2023/07/08 08:31:31;;;;;;;0.30;0.30;;;24.40;99.90;;;;;;4947445;28;20001;-86
2023/07/08 08:33:57;;;;;;;0.60;0.60;;;24.40;99.90;;;;;;4956264;28;20109;-89
2023/07/08 08:36:23;;;;;;;1.27;1.00;;;24.40;99.90;;;;;;4948403;28;20042;-88
2023/07/08 08:38:49;;;;;;;0.22;0.22;;;24.40;99.90;;;;;;4963277;28;20050;-88
2023/07/08 08:41:25;;;;;;;0.57;0.57;;;24.50;99.90;;;;;;4942658;28;20046;-90
2023/07/08 08:43:52;;;;;;;0.90;0.82;;;24.60;99.90;;;;;;4963699;28;20050;-89
2023/07/08 08:46:27;;;;;;;1.25;0.90;;;24.70;99.90;;;;;;4956371;28;20051;-89
2023/07/08 08:49:04;;;;;;;0.40;0.40;;;24.80;99.90;;;;;;4941107;28;20109;-89
2023/07/08 08:51:32;;;;;;;0.57;0.57;;;24.90;99.90;;;;;;4971614;28;20491;-89
2023/07/08 08:53:58;;;;;;;0.40;0.40;;;25.00;99.90;;;;;;4987920;28;20557;-94
2023/07/08 08:56:28;;;;;;;0.60;0.60;;;25.10;99.90;;;;;;4975643;28;20058;-90
2023/07/08 08:58:54;;;;;;;0.47;0.40;;;25.20;99.90;;;;;;4964511;28;20131;-86
2023/07/08 09:01:20;;;;;;;0.90;0.73;;;25.20;99.90;;;;;;4961767;28;20479;-87
2023/07/08 09:03:45;;;;;;;;;;;25.20;99.90;;;;;;4984040;28;20043;-87
2023/07/08 09:06:27;;;;;;;0.60;0.60;;;25.20;99.90;;;;;;4960683;28;19926;-86
2023/07/08 09:08:55;;;;;;;0.40;0.40;;;25.30;99.90;;;;;;4949514;28;20046;-85
2023/07/08 09:11:36;;;;;;;0.47;0.47;;;25.40;99.90;;;;;;4969496;28;20043;-87
2023/07/08 09:14:02;;;;;;;0.65;0.65;;;25.50;99.90;;;;;;4973533;28;20696;-91
2023/07/08 09:16:43;;;;;;;0.80;0.60;;;25.60;99.90;;;;;;4957575;28;20047;-90
2023/07/08 09:19:24;;;;;;;0.60;0.60;;;25.60;99.90;;;;;;4965844;28;20059;-93
2023/07/08 09:22:26;;;;;;;0.90;0.88;;;25.60;99.90;;;;;;4953531;28;20062;-93
2023/07/08 09:25:01;;;;;;;1.85;0.70;;;25.60;99.90;;;;;;4980943;28;20507;-94
2023/07/08 09:27:26;;;;;;;0.70;0.70;;;25.80;99.90;;;;;;4973606;28;20105;-95
2023/07/08 09:29:52;;;;;;;;;;;25.90;99.90;;;;;;4975459;28;20498;-96
2023/07/08 09:32:24;;;;;;;0.40;0.40;;;26.00;99.90;;;;;;4983840;28;20005;-93
2023/07/08 09:34:52;;;;;;;0.55;0.55;;;26.00;99.90;;;;;;4996150;28;20046;-95
2023/07/08 09:37:30;;;;;;;0.45;0.45;;;26.10;99.90;;;;;;4992353;28;20045;-96
2023/07/08 09:39:59;;;;;;;0.73;0.55;;;26.10;99.90;;;;;;4983810;28;20058;-96
2023/07/08 09:42:34;;;;;;;1.05;0.95;;;26.20;99.90;;;;;;4969585;28;20054;-95
2023/07/08 09:45:10;;;;;;;0.43;0.43;;;26.20;99.90;;;;;;4963949;28;20128;-96
2023/07/08 09:47:37;;;;;;;0.63;0.50;;;26.30;99.90;;;;;;4953635;28;20050;-96
2023/07/08 09:50:15;;;;;;;0.55;0.50;;;26.40;99.90;;;;;;4934655;28;20528;-95
2023/07/08 09:52:41;;;;;;;1.08;0.68;;;26.60;99.90;;;;;;4969683;28;20054;-95
2023/07/08 09:55:11;;;;;;;0.68;0.68;;;26.30;99.90;;;;;;4952479;28;20043;-93
2023/07/08 09:57:38;;;;;;;0.50;0.50;;;26.70;99.90;;;;;;4993764;28;20042;-93
2023/07/08 10:00:38;;;;;;;0.43;0.43;;;26.80;99.90;;;;;;4949321;28;20047;-89
2023/07/08 10:03:24;;;;;;;0.43;0.40;;;26.90;99.90;;;;;;4962620;28;20047;-88
2023/07/08 10:05:52;;;;;;;0.45;0.45;;;26.90;99.90;;;;;;4964957;28;20043;-90
2023/07/08 10:08:22;;;;;;;0.50;0.50;;;27.00;99.90;;;;;;4985770;28;20054;-88
2023/07/08 10:10:58;;;;;;;0.55;0.55;;;27.00;99.90;;;;;;4947658;28;20403;-90
2023/07/08 10:13:40;;;;;;;0.82;0.80;;;27.00;99.90;;;;;;4983799;28;20482;-91
2023/07/08 10:16:11;;;;;;;0.82;0.50;;;27.00;99.90;;;;;;4985430;28;20271;-91
2023/07/08 10:18:37;;;;;;;0.65;0.65;;;27.00;99.90;;;;;;4967289;28;20529;-92
2023/07/08 10:21:07;;;;;;;;;;;27.00;99.90;;;;;;4963914;28;20070;-90
2023/07/08 10:23:36;;;;;;;0.60;0.60;;;27.10;99.90;;;;;;4996121;28;19922;-91
2023/07/08 10:26:31;;;;;;;0.63;0.63;;;27.00;99.90;;;;;;4947864;28;20395;-90
2023/07/08 10:28:59;;;;;;;0.73;0.60;;;27.20;99.90;;;;;;4950964;28;20046;-93
2023/07/08 10:31:28;;;;;;;0.75;0.60;;;27.20;99.90;;;;;;4982181;28;20458;-92
2023/07/08 10:34:03;;;;;;;0.60;0.60;;;27.30;99.90;;;;;;4963112;28;20050;-92
2023/07/08 10:36:48;;;;;;;0.52;0.52;;;27.40;99.90;;;;;;4946301;28;20168;-93
2023/07/08 10:39:13;;;;;;;0.50;0.50;;;27.40;99.90;;;;;;4968365;28;20094;-93
2023/07/08 10:41:50;;;;;;;0.68;0.68;;;27.50;99.90;;;;;;4967749;28;20046;-94
2023/07/08 10:44:29;;;;;;;0.60;0.60;;;27.70;99.90;;;;;;4982139;28;20121;-90
2023/07/08 10:47:36;;;;;;;0.60;0.52;;;27.80;99.90;;;;;;4977105;28;20051;-90
2023/07/08 10:50:26;;;;;;;0.50;0.40;;;27.90;99.90;;;;;;4966210;28;20088;-93
2023/07/08 10:53:11;;;;;;;0.60;0.60;;;28.00;99.90;;;;;;4949422;28;20069;-89
2023/07/08 10:55:58;;;;;;;0.63;0.63;;;28.10;99.90;;;;;;4964275;28;20456;-92
2023/07/08 10:58:36;;;;;;;0.45;0.45;;;28.10;99.90;;;;;;4948677;28;20122;-92
2023/07/08 11:01:18;;;;;;;0.50;0.50;;;28.20;99.90;;;;;;4963678;28;20053;-93
2023/07/08 11:04:03;;;;;;;0.77;0.77;;;28.20;99.90;;;;;;4964268;28;20035;-92
2023/07/08 11:06:32;;;;;;;0.95;0.68;;;28.40;99.90;;;;;;4967310;28;20050;-92
2023/07/08 11:09:01;;;;;;;0.82;0.70;;;28.50;99.90;;;;;;4967067;28;20047;-93
2023/07/08 11:11:45;;;;;;;0.50;0.50;;;28.50;99.90;;;;;;4967070;28;20112;-92
2023/07/08 11:14:16;;;;;;;0.85;0.50;;;28.60;99.90;;;;;;4964378;28;20554;-94
2023/07/08 11:16:59;;;;;;;0.70;0.70;;;28.70;99.90;;;;;;4950749;28;20053;-88
2023/07/08 11:19:48;;;;;;;1.20;0.60;;;28.80;99.90;;;;;;4953401;28;20074;-95
2023/07/08 11:22:15;;;;;;;0.60;0.60;;;28.80;99.90;;;;;;4966322;28;20047;-91
2023/07/08 11:24:50;;;;;;;0.68;0.68;;;28.90;99.90;;;;;;4962553;28;20197;-95
2023/07/08 11:27:27;;;;;;;0.60;0.60;;;29.00;99.90;;;;;;4987664;28;20287;-96
2023/07/08 11:30:11;;;;;;;0.70;0.70;;;29.00;99.90;;;;;;4968952;28;20047;-94
2023/07/08 11:32:38;;;;;;;0.40;0.40;;;29.10;99.90;;;;;;4970974;28;20054;-96
2023/07/08 11:35:12;;;;;;;0.70;0.70;;;29.20;99.90;;;;;;4969953;28;20073;-95
2023/07/08 11:37:38;;;;;;;0.95;0.60;;;29.30;99.90;;;;;;4984150;28;20050;-95
2023/07/08 11:40:22;;;;;;;1.02;0.80;;;29.40;99.90;;;;;;4997567;28;20082;-95
2023/07/08 11:42:59;;;;;;;1.05;0.50;;;29.40;99.90;;;;;;4978410;28;20053;-96
2023/07/08 11:45:38;;;;;;;0.63;0.50;;;29.40;99.90;;;;;;4976973;28;20042;-96
2023/07/08 11:48:13;;;;;;;0.63;0.63;;;29.60;99.90;;;;;;4960646;28;20054;-95
2023/07/08 11:50:46;;;;;;;0.85;0.55;;;29.60;99.90;;;;;;4977506;28;20414;-91
2023/07/08 11:53:30;;;;;;;0.60;0.60;;;29.70;99.90;;;;;;4974149;28;20575;-91
2023/07/08 11:56:04;;;;;;;0.70;0.70;;;29.80;99.90;;;;;;4957141;28;20055;-93
2023/07/08 11:58:51;;;;;;;0.70;0.70;;;29.90;99.90;;;;;;4950619;29;20067;-91
2023/07/08 12:01:28;;;;;;;0.60;0.60;;;29.90;99.90;;;;;;4936809;28;20043;-94
2023/07/08 12:04:24;;;;;;;0.52;0.52;;;30.10;99.90;;;;;;4992469;28;20044;-90
2023/07/08 12:07:08;;;;;;;0.40;0.40;;;30.00;99.90;;;;;;4937899;29;20523;-92
2023/07/08 12:09:45;;;;;;;0.55;0.52;;;30.10;99.90;;;;;;4938305;29;20142;-90
2023/07/08 12:12:25;;;;;;;1.48;1.08;;;30.20;99.90;;;;;;4956569;28;20189;-91
2023/07/08 12:14:58;;;;;;;0.32;0.32;;;30.20;99.90;;;;;;4970819;28;20133;-92
2023/07/08 12:17:24;;;;;;;0.50;0.50;;;30.30;99.90;;;;;;4993275;28;20050;-91
2023/07/08 12:19:51;;;;;;;1.00;0.55;;;30.40;99.90;;;;;;4976169;28;20047;-91
2023/07/08 12:22:18;;;;;;;0.80;0.80;;;30.40;99.90;;;;;;4977120;28;20043;-91
2023/07/08 12:24:44;;;;;;;0.65;0.65;;;30.50;99.90;;;;;;4940898;28;20567;-90
2023/07/08 12:27:10;;;;;;;0.45;0.45;;;30.60;99.90;;;;;;4956488;28;20074;-91
2023/07/08 12:29:36;;;;;;;0.68;0.68;;;30.60;99.90;;;;;;4971923;28;20057;-91
2023/07/08 12:32:03;;;;;;;0.52;0.52;;;30.70;99.90;;;;;;4967404;28;20055;-91
2023/07/08 12:34:29;;;;;;;0.50;0.50;;;30.80;98.50;;;;;;4943972;28;20050;-92
2023/07/08 12:36:55;;;;;;;0.52;0.43;;;30.80;96.80;;;;;;4964429;28;20506;-92
2023/07/08 12:39:21;;;;;;;0.65;0.65;;;30.90;96.50;;;;;;4966333;28;20047;-92
2023/07/08 12:41:48;;;;;;;1.38;0.80;;;30.90;94.50;;;;;;4964720;28;20118;-95
2023/07/08 12:44:18;;;;;;;0.40;0.40;;;31.00;95.60;;;;;;4953708;28;20042;-93
2023/07/08 12:46:45;;;;;;;0.50;0.50;;;31.10;93.00;;;;;;4982967;28;20130;-92
2023/07/08 12:49:11;;;;;;;0.50;0.50;;;31.90;92.90;;;;;;4970903;28;20042;-89
2023/07/08 12:51:37;;;;;;;0.57;0.52;;;31.20;91.20;;;;;;4979092;28;20061;-86
2023/07/08 12:54:02;;;;;;;0.70;0.70;;;31.30;92.10;;;;;;4961206;28;20063;-92
2023/07/08 12:56:29;;;;;;;1.10;0.95;;;31.30;90.80;;;;;;4960218;28;20062;-92
2023/07/08 12:58:59;;;;;;;0.60;0.60;;;31.30;90.40;;;;;;4960863;28;20497;-91
2023/07/08 13:01:32;;;;;;;1.08;0.98;;;31.40;86.10;;;;;;4970293;28;20434;-91
2023/07/08 13:04:09;;;;;;;0.80;0.68;;;31.40;82.00;;;;;;4978377;28;20042;-91